Hauptseite
METAR-TAF:

METAR-TAF

Flughäfen :

Fliegerhorst Wittmundhafen

Wittmund, Deutschland

Breite: 53-33N, Länge: 007-40E, Höhe: 8 m

Beobachtung

Neuester Wetterbericht von vor 1 Stunde und 15 Minuten, um 19:20 UTC
Wind 6 kt aus West/Nordwest
Temperatur 5°C
Luftfeuchtigkeit 65%
Luftdruck 1018 hPa
Sichtweite: 7000 m

METAR: ETNT 031920Z AUTO 29006KT 7000 // ////// 05/M01 Q1018 ///

Zeit: 22:35 (20:35 UTC)

Prognose

Neuester Wetterbericht von vor 1 Stunde und 20 Minuten, um 19:15 UTC
Gültige Prognose vom 03 um 20 UTC bis 04 um 05 UTC
Wind 5 kt aus West
Sichtweite 10 km oder mehr
Durchbrochene Bewölkung in der Höhe von 5000 ft
Übergehend zu
vom 03 um 22 UTC bis 03 um 24 UTC
Wind 5 kt aus Südwest
Sichtweite 10 km oder mehr
Aufgelockert bewölkt in der Höhe von 5000 ft

TAF: ETNT 031915Z 0320/0405 28005KT 9999 NSW BKN050 BECMG 0322/0324 23005KT 9999 NSW SCT050 BY ETGL

Wetterbeobachtungen und Prognosen von mehr als 4000 Flughäfen (METAR und TAF Bericht).

Die verfügbaren Stationen werden durch gelbe und rote Markierungen auf der Karte dargestellt.

Führen Sie die Maus auf sie, um den Namen der Station zu sehen.

Darauf klicken, um die Beobachtung von Wetterbeobachtungen und Prognosen zu sehen.

Um die Karte zu ändern : klicken Sie auf den grünen Tasten mit einem schwarzen Kreuz Zum Vergrößern, auf den grünen Button mit einem Gedankenstrich zu verkleinern, oder auf die grünen Pfeile für benachbarte Karten.


METAR-TAF: